ZKPY

Sunan International Airport

Pyongyang, North Korea
TAF ZKPY 220410Z 2206/2306 20004MPS 7000 NSC TX06/2206Z TNM08/2222Z BECMG 2209/2211 26004MPS
Issued Valid From Valid To
Jan-22 @ 04:10 UTC
(13 hours ago)
Jan-22 @ 06:00 UTC
(12 hours ago)
Jan-23 @ 06:00 UTC
(in 12 hours)
Expired Click to View Jan-22 @ 06:00 to Jan-22 @ 09:00
TAF ZKPY 220410Z 2206/2306 20004MPS 7000 NSC TX06/2206Z TNM08/2222Z
Wind Visibility Clouds
200° at 8 knots 7,001 meters
  • No significant clouds
Becoming Jan-22 @ 09:00 to Jan-23 @ 06:00
BECMG 2209/2211 26004MPS
Wind Visibility Clouds
260° at 8 knots 7,001 meters
  • No significant clouds
TAF ZKPY 220410Z 2206/2306 20004MPS 7000 NSC TX06/2206Z TNM08/2222Z BECMG 2209/2211 26004MPS
Issued Jan-22 @ 04:10 UTC
(13 hours ago)
Valid From Jan-22 @ 06:00 UTC
(12 hours ago)
Valid To Jan-23 @ 06:00 UTC
(in 12 hours)
Jan-22 @ 06:00 - Jan-22 @ 09:00
Wind Visibility
200° at 8 knots 7,001 meters
Clouds
  • No significant clouds
Becoming Jan-22 @ 09:00 - Jan-23 @ 06:00
Wind Visibility
260° at 8 knots 7,001 meters
Clouds
  • No significant clouds